createdAt,value
2023-01-12T00:02:00.606Z,6.90
2023-01-12T00:04:30.855Z,6.40
2023-01-12T00:06:59.415Z,5.90
2023-01-12T00:09:27.009Z,6.73
2023-01-12T00:11:54.344Z,6.07
2023-01-12T00:14:21.453Z,6.93
2023-01-12T00:16:48.651Z,6.00
2023-01-12T00:19:21.729Z,5.30
2023-01-12T00:21:57.172Z,6.07
2023-01-12T00:24:36.785Z,6.10
2023-01-12T00:27:07.432Z,5.50
2023-01-12T00:29:35.898Z,5.60
2023-01-12T00:32:03.992Z,5.80
2023-01-12T00:34:31.593Z,5.57
2023-01-12T00:37:00.907Z,5.93
2023-01-12T00:39:28.240Z,6.67
2023-01-12T00:42:13.592Z,5.83
2023-01-12T00:44:59.507Z,5.57
2023-01-12T00:47:26.648Z,5.80
2023-01-12T00:49:53.803Z,7.57
2023-01-12T00:52:35.972Z,7.23
2023-01-12T00:55:03.357Z,6.43
2023-01-12T00:57:30.708Z,6.00
2023-01-12T01:00:00.009Z,6.83
2023-01-12T01:02:28.365Z,6.70
2023-01-12T01:04:56.401Z,6.33
2023-01-12T01:07:23.809Z,7.63
2023-01-12T01:09:51.531Z,6.20
2023-01-12T01:12:19.416Z,6.23
2023-01-12T01:14:47.700Z,5.80
2023-01-12T01:17:15.257Z,6.07
2023-01-12T01:19:43.554Z,6.20
2023-01-12T01:22:12.466Z,6.17
2023-01-12T01:24:40.641Z,6.30
2023-01-12T01:27:07.766Z,5.57
2023-01-12T01:29:34.879Z,5.60
2023-01-12T01:32:02.067Z,5.63
2023-01-12T01:34:29.392Z,5.43
2023-01-12T01:36:56.541Z,6.07
2023-01-12T01:39:23.716Z,6.27
2023-01-12T01:41:51.150Z,5.83
2023-01-12T01:44:30.654Z,5.00
2023-01-12T01:47:08.023Z,5.93
2023-01-12T01:49:46.510Z,5.13
2023-01-12T01:52:28.353Z,5.47
2023-01-12T01:55:14.269Z,5.33
2023-01-12T01:57:53.389Z,5.10
2023-01-12T02:00:20.951Z,4.30
2023-01-12T02:02:48.920Z,5.20
2023-01-12T02:05:24.306Z,5.27
2023-01-12T02:07:52.795Z,4.53
2023-01-12T02:10:20.673Z,4.20
2023-01-12T02:13:09.264Z,4.50
2023-01-12T02:16:11.423Z,4.50
2023-01-12T02:19:29.223Z,5.10
2023-01-12T02:22:20.362Z,5.07
2023-01-12T02:25:16.298Z,4.90
2023-01-12T02:28:21.786Z,4.07
2023-01-12T02:31:26.957Z,5.03
2023-01-12T02:34:15.878Z,4.53
2023-01-12T02:36:56.420Z,3.87
2023-01-12T02:39:30.910Z,4.43
2023-01-12T02:42:40.601Z,3.80
2023-01-12T02:45:35.251Z,4.50
2023-01-12T02:48:27.297Z,4.00
2023-01-12T02:51:05.769Z,3.90
2023-01-12T02:53:51.132Z,4.23
2023-01-12T02:56:33.486Z,3.80
2023-01-12T02:59:20.025Z,4.57
2023-01-12T03:01:54.646Z,3.70
2023-01-12T03:04:27.771Z,3.73
2023-01-12T03:06:57.747Z,4.53
2023-01-12T03:09:31.545Z,4.20
2023-01-12T03:12:23.804Z,4.63
2023-01-12T03:14:54.014Z,3.60
2023-01-12T03:17:33.962Z,4.10
2023-01-12T03:20:07.977Z,4.00
2023-01-12T03:22:37.658Z,3.70
2023-01-12T03:25:11.125Z,4.20
2023-01-12T03:27:43.783Z,3.53
2023-01-12T03:30:15.326Z,3.47
2023-01-12T03:32:42.893Z,3.73
2023-01-12T03:35:10.541Z,3.63
2023-01-12T03:37:41.157Z,3.70
2023-01-12T03:40:18.582Z,3.77
2023-01-12T03:43:02.816Z,3.77
2023-01-12T03:45:33.412Z,4.17
2023-01-12T03:48:24.715Z,4.50
2023-01-12T03:51:02.766Z,4.10
2023-01-12T03:53:31.616Z,4.07
2023-01-12T03:56:06.016Z,4.87
2023-01-12T03:58:34.964Z,4.40
2023-01-12T04:01:03.970Z,4.37
2023-01-12T04:03:31.537Z,4.17
2023-01-12T04:05:58.654Z,4.70
2023-01-12T04:08:25.756Z,3.77
2023-01-12T04:10:52.867Z,3.97
2023-01-12T04:13:22.777Z,3.43
2023-01-12T04:15:50.079Z,2.97
2023-01-12T04:18:17.677Z,3.17
2023-01-12T04:20:47.064Z,2.70
2023-01-12T04:23:14.325Z,2.33
2023-01-12T04:25:41.511Z,2.60
2023-01-12T04:28:08.723Z,2.50
2023-01-12T04:30:35.996Z,1.90
2023-01-12T04:33:08.171Z,1.97
2023-01-12T04:35:35.561Z,1.97
2023-01-12T04:38:09.653Z,1.90
2023-01-12T04:40:36.939Z,2.00
2023-01-12T04:43:07.420Z,2.50
2023-01-12T04:45:38.749Z,2.20
2023-01-12T04:48:10.101Z,2.60
2023-01-12T04:50:38.953Z,2.30
2023-01-12T04:53:09.401Z,3.73
2023-01-12T04:55:38.592Z,3.50
2023-01-12T04:58:06.202Z,2.70
2023-01-12T05:00:33.908Z,3.10
2023-01-12T05:03:02.324Z,3.40
2023-01-12T05:05:32.103Z,3.00
2023-01-12T05:08:19.674Z,3.70
2023-01-12T05:10:59.333Z,5.20
2023-01-12T05:13:30.568Z,3.97
2023-01-12T05:15:57.782Z,4.20
2023-01-12T05:18:26.712Z,3.73
2023-01-12T05:20:56.910Z,3.80
2023-01-12T05:23:24.148Z,4.13
2023-01-12T05:25:51.305Z,3.60
2023-01-12T05:28:18.537Z,3.60
2023-01-12T05:30:46.022Z,3.63
2023-01-12T05:33:16.579Z,4.10
2023-01-12T05:35:43.975Z,3.60
2023-01-12T05:38:11.629Z,4.33
2023-01-12T05:40:38.869Z,3.90
2023-01-12T05:43:24.570Z,3.50
2023-01-12T05:45:52.187Z,3.70
2023-01-12T05:48:19.495Z,3.30
2023-01-12T05:50:46.684Z,3.23
2023-01-12T05:53:13.920Z,3.00
2023-01-12T05:55:41.128Z,3.50
2023-01-12T05:58:08.261Z,4.00
2023-01-12T06:00:35.518Z,4.97
2023-01-12T06:03:03.491Z,3.20
2023-01-12T06:05:30.681Z,3.57
2023-01-12T06:07:59.128Z,3.53
2023-01-12T06:10:26.474Z,3.80
2023-01-12T06:13:12.213Z,5.23
2023-01-12T06:15:39.481Z,4.10
2023-01-12T06:18:07.040Z,4.40
2023-01-12T06:20:34.312Z,4.37
2023-01-12T06:23:03.682Z,4.57
2023-01-12T06:25:32.170Z,4.10
2023-01-12T06:27:59.649Z,4.47
2023-01-12T06:30:26.773Z,4.13
2023-01-12T06:32:53.916Z,4.77
2023-01-12T06:35:21.206Z,4.40
2023-01-12T06:37:48.670Z,4.00
2023-01-12T06:40:16.206Z,4.20
2023-01-12T06:42:43.483Z,4.50
2023-01-12T06:45:12.335Z,3.90
2023-01-12T06:47:52.014Z,3.80
2023-01-12T06:50:19.447Z,4.13
2023-01-12T06:52:46.672Z,3.50
2023-01-12T06:55:14.099Z,4.20
2023-01-12T06:57:41.418Z,4.10
2023-01-12T07:00:09.741Z,3.80
2023-01-12T07:02:38.254Z,3.67
2023-01-12T07:05:06.480Z,3.33
2023-01-12T07:07:33.806Z,3.40
2023-01-12T07:10:01.029Z,3.03
2023-01-12T07:12:28.254Z,3.90
2023-01-12T07:14:56.264Z,3.70
2023-01-12T07:17:23.668Z,2.97
2023-01-12T07:19:50.973Z,3.80
2023-01-12T07:22:18.256Z,3.20
2023-01-12T07:24:45.465Z,3.27
2023-01-12T07:27:12.610Z,3.13
2023-01-12T07:29:39.861Z,3.57
2023-01-12T07:32:07.307Z,3.17
2023-01-12T07:34:34.540Z,3.20
2023-01-12T07:37:01.640Z,3.33
2023-01-12T07:39:28.775Z,3.43
2023-01-12T07:42:14.523Z,3.13
2023-01-12T07:44:42.009Z,2.97
2023-01-12T07:47:09.387Z,3.30
2023-01-12T07:49:37.279Z,3.10
2023-01-12T07:52:04.515Z,2.90
2023-01-12T07:54:33.585Z,3.07
2023-01-12T07:57:00.790Z,3.00
2023-01-12T07:59:28.112Z,3.20
2023-01-12T08:01:55.645Z,2.90
2023-01-12T08:04:23.311Z,3.60
2023-01-12T08:06:50.553Z,3.47
2023-01-12T08:09:17.754Z,3.53
2023-01-12T08:11:44.971Z,3.23
2023-01-12T08:14:29.207Z,3.00
2023-01-12T08:17:01.646Z,3.27
2023-01-12T08:19:38.758Z,3.77
2023-01-12T08:22:15.881Z,2.90
2023-01-12T08:24:52.953Z,3.10
2023-01-12T08:27:24.894Z,3.20
2023-01-12T08:29:56.294Z,3.33
2023-01-12T08:32:23.971Z,2.87
2023-01-12T08:34:54.177Z,2.90
2023-01-12T08:37:24.360Z,3.20
2023-01-12T08:39:52.707Z,3.20
2023-01-12T08:42:20.692Z,3.17
2023-01-12T08:44:48.099Z,2.67
2023-01-12T08:47:28.348Z,2.80
2023-01-12T08:49:57.695Z,3.13
2023-01-12T08:52:25.595Z,2.60
2023-01-12T08:54:52.732Z,2.60
2023-01-12T08:57:19.929Z,2.70
2023-01-12T08:59:47.158Z,2.50
2023-01-12T09:02:15.756Z,2.30
2023-01-12T09:04:43.275Z,2.40
2023-01-12T09:07:11.859Z,2.23
2023-01-12T09:09:39.091Z,1.93
2023-01-12T09:12:07.154Z,2.03
2023-01-12T09:14:38.832Z,2.20
2023-01-12T09:17:07.476Z,1.90
2023-01-12T09:19:34.928Z,2.20
2023-01-12T09:22:02.211Z,2.20
2023-01-12T09:24:29.504Z,2.10
2023-01-12T09:26:56.780Z,1.87
2023-01-12T09:29:24.018Z,2.30
2023-01-12T09:31:51.583Z,1.90
2023-01-12T09:34:18.759Z,2.30
2023-01-12T09:36:46.073Z,1.73
2023-01-12T09:39:26.977Z,1.90
2023-01-12T09:42:15.431Z,1.57
2023-01-12T09:45:09.415Z,1.80
2023-01-12T09:47:55.018Z,1.80
2023-01-12T09:50:52.400Z,1.80
2023-01-12T09:53:27.803Z,1.40
2023-01-12T09:56:29.658Z,1.43
2023-01-12T09:59:18.473Z,1.40
2023-01-12T10:01:46.094Z,1.47
2023-01-12T10:04:14.055Z,1.20
2023-01-12T10:06:41.597Z,1.10
2023-01-12T10:09:18.772Z,1.00
2023-01-12T10:12:06.381Z,1.10
2023-01-12T10:14:33.375Z,1.10
2023-01-12T10:17:38.654Z,1.00
2023-01-12T10:20:30.582Z,1.60
2023-01-12T10:23:16.763Z,1.33
2023-01-12T10:25:51.571Z,1.10
2023-01-12T10:28:33.299Z,1.07
2023-01-12T10:31:01.503Z,0.90
2023-01-12T10:33:34.493Z,1.00
2023-01-12T10:36:18.834Z,1.00
2023-01-12T10:39:00.814Z,1.03
2023-01-12T10:41:31.233Z,0.93
2023-01-12T10:43:58.474Z,0.93
2023-01-12T10:46:32.366Z,1.23
2023-01-12T10:49:24.587Z,1.10
2023-01-12T10:52:02.397Z,1.20
2023-01-12T10:54:33.783Z,1.00
2023-01-12T10:57:21.993Z,1.20
2023-01-12T10:59:59.230Z,1.10
2023-01-12T11:02:28.999Z,1.20
2023-01-12T11:04:56.274Z,1.17
2023-01-12T11:07:31.269Z,1.30
2023-01-12T11:10:25.497Z,1.10
2023-01-12T11:13:03.851Z,1.23
2023-01-12T11:15:38.875Z,1.20
2023-01-12T11:18:36.168Z,1.03
2023-01-12T11:21:10.890Z,1.27
2023-01-12T11:24:03.440Z,1.37
2023-01-12T11:26:39.489Z,1.20
2023-01-12T11:29:54.783Z,1.37
2023-01-12T11:32:50.251Z,1.60
2023-01-12T11:35:51.844Z,1.50
2023-01-12T11:38:37.137Z,1.40
2023-01-12T11:41:09.698Z,1.50
2023-01-12T11:43:55.826Z,1.30
2023-01-12T11:46:42.745Z,1.53
2023-01-12T11:49:27.221Z,1.13
2023-01-12T11:51:57.934Z,1.30
2023-01-12T11:54:27.779Z,1.80
2023-01-12T11:57:32.530Z,0.93
2023-01-12T12:00:40.095Z,1.20
2023-01-12T12:03:55.477Z,1.50
2023-01-12T12:06:48.980Z,1.20
2023-01-12T12:09:34.582Z,1.13
2023-01-12T12:12:20.516Z,1.30
2023-01-12T12:15:16.930Z,1.20
2023-01-12T12:18:04.874Z,1.47
2023-01-12T12:20:55.575Z,1.40
2023-01-12T12:23:55.241Z,1.30
2023-01-12T12:26:40.541Z,1.30
2023-01-12T12:29:31.891Z,1.40
2023-01-12T12:32:58.332Z,1.47
2023-01-12T12:35:51.103Z,1.37
2023-01-12T12:38:55.547Z,1.60
2023-01-12T12:42:04.674Z,1.50
2023-01-12T12:45:30.589Z,1.40
2023-01-12T12:48:15.771Z,1.40
2023-01-12T12:51:04.772Z,1.53
2023-01-12T12:53:44.980Z,1.60
2023-01-12T12:56:17.505Z,1.40
2023-01-12T12:58:47.456Z,1.93
2023-01-12T13:01:23.671Z,1.60
2023-01-12T13:04:06.002Z,1.40
2023-01-12T13:06:45.031Z,1.30
2023-01-12T13:09:12.176Z,1.00
2023-01-12T13:11:55.394Z,1.20
2023-01-12T13:14:35.218Z,1.30
2023-01-12T13:17:23.555Z,1.30
2023-01-12T13:20:13.688Z,1.20
2023-01-12T13:22:49.412Z,1.10
2023-01-12T13:25:17.048Z,0.80
2023-01-12T13:28:03.279Z,1.00
2023-01-12T13:30:30.542Z,1.20
2023-01-12T13:33:17.554Z,1.20
2023-01-12T13:35:45.050Z,1.30
2023-01-12T13:38:36.253Z,1.13
2023-01-12T13:41:44.706Z,1.37
2023-01-12T13:44:21.617Z,1.30
2023-01-12T13:46:51.560Z,1.20
2023-01-12T13:49:27.584Z,1.00
2023-01-12T13:52:35.536Z,1.00
2023-01-12T13:55:17.545Z,1.20
2023-01-12T13:58:04.185Z,1.20
2023-01-12T14:00:33.773Z,1.30
2023-01-12T14:03:03.683Z,1.10
2023-01-12T14:06:08.428Z,1.27
2023-01-12T14:09:06.131Z,1.30
2023-01-12T14:11:55.362Z,1.10
2023-01-12T14:15:41.591Z,1.10
2023-01-12T14:18:18.672Z,1.10
2023-01-12T14:20:59.055Z,1.13
2023-01-12T14:23:26.484Z,1.20
2023-01-12T14:26:27.229Z,1.10
2023-01-12T14:28:54.558Z,1.00
2023-01-12T14:31:48.388Z,1.27
2023-01-12T14:34:46.414Z,1.40
2023-01-12T14:37:29.992Z,1.57
2023-01-12T14:39:57.579Z,1.50
2023-01-12T14:42:43.547Z,1.30
2023-01-12T14:45:43.983Z,1.40
2023-01-12T14:48:34.082Z,1.57
2023-01-12T14:51:10.399Z,1.40
2023-01-12T14:53:43.141Z,1.70
2023-01-12T14:56:20.224Z,1.50
2023-01-12T14:58:48.527Z,1.60
2023-01-12T15:01:35.921Z,1.63
2023-01-12T15:04:06.029Z,1.60
2023-01-12T15:06:43.139Z,1.77
2023-01-12T15:09:30.848Z,2.00
2023-01-12T15:11:58.517Z,1.90
2023-01-12T15:14:29.272Z,1.70
2023-01-12T15:17:15.143Z,1.40
2023-01-12T15:20:00.757Z,1.30
2023-01-12T15:22:47.444Z,1.57
2023-01-12T15:25:36.204Z,1.50
2023-01-12T15:28:06.290Z,1.13
2023-01-12T15:30:38.455Z,1.50
2023-01-12T15:33:06.127Z,5.50
2023-01-12T15:35:34.148Z,1.60
2023-01-12T15:38:01.278Z,1.50
2023-01-12T15:40:29.931Z,1.67
2023-01-12T15:42:59.208Z,1.67
2023-01-12T15:45:47.063Z,1.40
2023-01-12T15:48:14.373Z,1.70
2023-01-12T15:50:44.656Z,1.50
2023-01-12T15:53:20.672Z,1.50
2023-01-12T15:55:48.844Z,1.70
2023-01-12T15:58:17.040Z,1.40
2023-01-12T16:00:45.020Z,1.60
2023-01-12T16:03:32.094Z,2.07
2023-01-12T16:06:01.060Z,1.60
2023-01-12T16:08:28.264Z,1.50
2023-01-12T16:11:12.501Z,2.03
2023-01-12T16:13:40.766Z,1.50
2023-01-12T16:16:15.245Z,1.50
2023-01-12T16:18:42.527Z,1.50
2023-01-12T16:21:17.995Z,1.50
2023-01-12T16:23:45.899Z,1.33
2023-01-12T16:26:13.208Z,1.90
2023-01-12T16:28:40.520Z,1.90
2023-01-12T16:31:10.636Z,1.50
2023-01-12T16:33:39.476Z,1.80
2023-01-12T16:36:07.797Z,1.93
2023-01-12T16:38:36.061Z,1.80
2023-01-12T16:41:22.427Z,2.10
2023-01-12T16:43:50.048Z,2.00
2023-01-12T16:46:18.219Z,1.47
2023-01-12T16:48:45.740Z,1.60
2023-01-12T16:51:16.072Z,1.80
2023-01-12T16:53:43.938Z,1.67
2023-01-12T16:56:14.970Z,1.50
2023-01-12T16:58:48.187Z,1.60
2023-01-12T17:01:21.288Z,2.30
2023-01-12T17:03:50.970Z,2.07
2023-01-12T17:06:21.383Z,1.90
2023-01-12T17:08:49.238Z,2.33
2023-01-12T17:11:24.109Z,1.87
2023-01-12T17:13:54.410Z,1.70
2023-01-12T17:16:24.315Z,2.20
2023-01-12T17:18:52.626Z,2.10
2023-01-12T17:21:21.069Z,2.00
2023-01-12T17:23:48.947Z,1.63
2023-01-12T17:26:18.387Z,1.73
2023-01-12T17:28:47.384Z,1.50
2023-01-12T17:31:18.718Z,1.50
2023-01-12T17:33:46.666Z,1.53
2023-01-12T17:36:14.656Z,1.73
2023-01-12T17:38:42.068Z,1.77
2023-01-12T17:41:33.087Z,1.70
2023-01-12T17:44:05.415Z,2.70
2023-01-12T17:46:34.268Z,2.07
2023-01-12T17:49:06.346Z,1.90
2023-01-12T17:51:34.610Z,1.97
2023-01-12T17:54:05.008Z,2.23
2023-01-12T17:56:33.843Z,2.50
2023-01-12T17:59:02.836Z,1.83
2023-01-12T18:01:33.848Z,2.00
2023-01-12T18:04:02.270Z,2.50
2023-01-12T18:06:29.559Z,2.47
2023-01-12T18:08:59.421Z,2.87
2023-01-12T18:11:28.157Z,2.60
2023-01-12T18:13:56.031Z,2.40
2023-01-12T18:16:48.497Z,2.60
2023-01-12T18:19:16.075Z,2.50
2023-01-12T18:21:44.008Z,2.60
2023-01-12T18:24:11.704Z,2.40
2023-01-12T18:26:39.227Z,3.03
2023-01-12T18:29:07.112Z,2.47
2023-01-12T18:31:38.110Z,2.80
2023-01-12T18:34:10.270Z,3.07
2023-01-12T18:36:40.843Z,2.73
2023-01-12T18:39:13.257Z,3.00
2023-01-12T18:41:58.989Z,3.07
2023-01-12T18:44:26.476Z,2.70
2023-01-12T18:47:13.622Z,2.93
2023-01-12T18:49:44.336Z,2.50
2023-01-12T18:52:31.672Z,3.03
2023-01-12T18:54:59.396Z,3.80
2023-01-12T18:57:30.552Z,3.23
2023-01-12T19:00:10.855Z,4.07
2023-01-12T19:02:40.724Z,3.40
2023-01-12T19:05:15.088Z,3.53
2023-01-12T19:08:04.855Z,3.27
2023-01-12T19:10:34.090Z,3.73
2023-01-12T19:13:19.911Z,3.60
2023-01-12T19:16:06.261Z,3.50
2023-01-12T19:18:37.468Z,3.93
2023-01-12T19:21:26.992Z,4.03
2023-01-12T19:24:12.819Z,3.97
2023-01-12T19:26:59.077Z,4.07
2023-01-12T19:29:26.498Z,4.60
2023-01-12T19:31:54.081Z,4.70
2023-01-12T19:34:21.628Z,5.33
2023-01-12T19:36:49.621Z,5.63
2023-01-12T19:39:25.545Z,5.40
2023-01-12T19:42:11.403Z,5.77
2023-01-12T19:44:38.850Z,6.20
2023-01-12T19:47:06.246Z,6.73
2023-01-12T19:49:33.654Z,6.83
2023-01-12T19:52:01.051Z,7.23
2023-01-12T19:54:29.815Z,7.33
2023-01-12T19:56:57.428Z,7.67
2023-01-12T19:59:25.126Z,7.60
2023-01-12T20:01:54.141Z,7.60
2023-01-12T20:04:21.644Z,7.47
2023-01-12T20:06:53.177Z,7.23
2023-01-12T20:09:20.605Z,8.00
2023-01-12T20:11:54.394Z,7.23
2023-01-12T20:14:22.522Z,8.17
2023-01-12T20:16:50.004Z,9.07
2023-01-12T20:19:19.557Z,7.73
2023-01-12T20:21:48.368Z,7.90
2023-01-12T20:24:17.655Z,7.40
2023-01-12T20:26:45.325Z,7.77
2023-01-12T20:29:12.738Z,7.10
2023-01-12T20:31:40.709Z,5.97
2023-01-12T20:34:08.359Z,3.77
2023-01-12T20:36:40.084Z,4.23
2023-01-12T20:39:11.515Z,4.43
2023-01-12T20:41:39.660Z,4.30
2023-01-12T20:44:07.858Z,4.17
2023-01-12T20:46:35.390Z,3.40
2023-01-12T20:49:02.907Z,3.30
2023-01-12T20:51:30.327Z,3.00
2023-01-12T20:53:59.985Z,2.60
2023-01-12T20:56:28.502Z,2.60
2023-01-12T20:58:58.688Z,2.70
2023-01-12T21:01:26.294Z,2.60
2023-01-12T21:03:53.651Z,2.27
2023-01-12T21:06:21.425Z,2.07
2023-01-12T21:08:48.981Z,2.03
2023-01-12T21:11:19.232Z,1.87
2023-01-12T21:13:47.181Z,2.40
2023-01-12T21:16:18.173Z,3.50
2023-01-12T21:18:46.553Z,2.63
2023-01-12T21:21:14.245Z,2.93
2023-01-12T21:23:41.648Z,2.87
2023-01-12T21:26:10.249Z,2.53
2023-01-12T21:28:39.712Z,2.93
2023-01-12T21:31:10.933Z,3.00
2023-01-12T21:33:38.727Z,3.20
2023-01-12T21:36:06.882Z,3.30
2023-01-12T21:38:34.325Z,2.90
2023-01-12T21:41:04.787Z,3.40
2023-01-12T21:43:33.487Z,3.17
2023-01-12T21:46:10.672Z,3.60
2023-01-12T21:48:38.305Z,3.90
2023-01-12T21:51:09.074Z,3.60
2023-01-12T21:53:36.729Z,3.60
2023-01-12T21:56:06.049Z,3.90
2023-01-12T21:58:35.998Z,3.57
2023-01-12T22:01:12.998Z,3.07
2023-01-12T22:03:41.352Z,3.40
2023-01-12T22:06:12.006Z,3.53
2023-01-12T22:08:41.848Z,3.70
2023-01-12T22:11:13.551Z,3.93
2023-01-12T22:13:43.585Z,3.47
2023-01-12T22:16:14.744Z,3.47
2023-01-12T22:18:52.475Z,3.10
2023-01-12T22:21:21.910Z,3.17
2023-01-12T22:23:49.706Z,3.30
2023-01-12T22:26:18.999Z,3.70
2023-01-12T22:28:48.793Z,3.33
2023-01-12T22:31:22.700Z,3.57
2023-01-12T22:34:03.935Z,2.97
2023-01-12T22:36:35.174Z,3.00
2023-01-12T22:39:02.735Z,2.90
2023-01-12T22:41:30.064Z,2.50
2023-01-12T22:43:57.656Z,3.17
2023-01-12T22:46:27.197Z,2.67
2023-01-12T22:48:57.355Z,2.50
2023-01-12T22:51:27.497Z,2.63
2023-01-12T22:53:55.954Z,2.60
2023-01-12T22:56:23.911Z,2.60
2023-01-12T22:58:54.442Z,2.77
2023-01-12T23:01:25.664Z,2.77
2023-01-12T23:03:55.902Z,2.60
2023-01-12T23:06:25.447Z,2.80
2023-01-12T23:08:52.974Z,3.20
2023-01-12T23:11:24.889Z,3.27
2023-01-12T23:13:55.044Z,3.00
2023-01-12T23:16:24.512Z,3.00
2023-01-12T23:18:55.231Z,2.97
2023-01-12T23:21:27.135Z,2.87
2023-01-12T23:23:58.107Z,2.90
2023-01-12T23:26:31.439Z,2.77
2023-01-12T23:29:02.367Z,3.00
2023-01-12T23:31:33.529Z,3.40
2023-01-12T23:34:01.554Z,3.90
2023-01-12T23:36:30.740Z,3.87
2023-01-12T23:39:01.403Z,4.07
2023-01-12T23:41:35.382Z,3.67
2023-01-12T23:44:06.436Z,4.30
2023-01-12T23:46:37.948Z,3.80
2023-01-12T23:49:06.007Z,4.03
2023-01-12T23:51:33.808Z,4.07
2023-01-12T23:54:02.850Z,4.27
2023-01-12T23:56:57.596Z,4.03
2023-01-12T23:59:25.297Z,4.33
